Time;durP1;ratioP1;P1;durP2;ratioP2;P2;SDS_P1;SDS_P2;PMS_P1;PMS_P2;Temp;Humidity;BMP_temperature;BMP_pressure;BME280_temperature;BME280_humidity;BME280_pressure;Samples;Min_cycle;Max_cycle;Signal;HPM_P1;HPM_P2
2022/09/21 00:00:12;;;;;;;9.60;8.60;;;;;;;7.93;83.54;99111.90;88511;1274;98763;-74
2022/09/21 00:02:34;;;;;;;11.90;8.90;;;;;;;7.91;83.53;99108.29;88670;1271;23540;-73
2022/09/21 00:04:36;;;;;;;10.70;8.40;;;;;;;7.90;83.61;99104.65;88412;1274;24219;-73
2022/09/21 00:06:38;;;;;;;14.70;8.30;;;;;;;7.89;83.64;99106.96;88661;1271;98544;-73
2022/09/21 00:08:42;;;;;;;12.80;8.40;;;;;;;7.90;83.70;99109.04;88439;1275;22605;-73
2022/09/21 00:10:49;;;;;;;9.70;8.60;;;;;;;7.84;83.57;99098.40;88696;1274;24482;-73
2022/09/21 00:12:50;;;;;;;9.00;8.10;;;;;;;7.88;83.44;99104.89;88686;1271;97370;-74
2022/09/21 00:14:52;;;;;;;11.50;8.80;;;;;;;7.86;83.59;99105.65;88498;1275;23484;-72
2022/09/21 00:16:56;;;;;;;9.10;8.20;;;;;;;7.84;83.76;99102.42;88615;1271;22612;-75
2022/09/21 00:18:59;;;;;;;13.90;8.90;;;;;;;7.81;83.31;99104.08;88346;1274;98493;-73
2022/09/21 00:21:05;;;;;;;12.10;8.40;;;;;;;7.80;83.58;99105.00;88367;1277;23041;-73
2022/09/21 00:23:07;;;;;;;13.30;7.90;;;;;;;7.79;83.56;99105.20;88449;1277;23487;-74
2022/09/21 00:25:09;;;;;;;8.90;7.90;;;;;;;7.77;83.90;99104.73;88508;1274;98817;-74
2022/09/21 00:27:11;;;;;;;11.20;7.20;;;;;;;7.75;83.79;99106.02;88458;1276;22647;-73
2022/09/21 00:29:13;;;;;;;13.60;8.30;;;;;;;7.74;83.61;99111.17;88464;1273;22719;-72
2022/09/21 00:31:17;;;;;;;12.00;7.60;;;;;;;7.72;83.52;99110.70;88509;1274;98790;-73
2022/09/21 00:33:19;;;;;;;15.60;7.80;;;;;;;7.71;83.64;99113.00;88702;1274;22605;-73
2022/09/21 00:35:21;;;;;;;12.40;7.80;;;;;;;7.70;83.45;99112.86;88470;1273;22562;-74
2022/09/21 00:37:24;;;;;;;8.50;7.10;;;;;;;7.71;83.52;99117.39;88512;1271;99196;-75
2022/09/21 00:39:25;;;;;;;14.80;8.20;;;;;;;7.69;83.47;99116.04;88468;1274;23621;-74
2022/09/21 00:41:30;;;;;;;10.90;8.20;;;;;;;7.70;83.79;99118.63;88605;1274;22684;-74
2022/09/21 00:43:37;;;;;;;12.50;8.20;;;;;;;7.71;83.41;99118.76;88644;1274;98621;-73
2022/09/21 00:45:39;;;;;;;9.40;7.50;;;;;;;7.73;83.87;99122.56;88742;1274;22658;-73
2022/09/21 00:47:44;;;;;;;13.80;7.70;;;;;;;7.73;83.92;99117.83;88443;1274;99248;-74
2022/09/21 00:49:49;;;;;;;14.30;8.30;;;;;;;7.74;83.93;99116.39;88479;1274;22712;-73
2022/09/21 00:51:52;;;;;;;10.40;7.90;;;;;;;7.76;83.91;99119.31;88658;1274;23682;-73
2022/09/21 00:54:01;;;;;;;12.10;8.90;;;;;;;7.77;83.95;99118.94;88359;1274;98150;-75
2022/09/21 00:56:05;;;;;;;18.00;8.90;;;;;;;7.77;83.78;99119.77;88464;1274;24395;-75
2022/09/21 00:58:16;;;;;;;16.50;9.80;;;;;;;7.78;83.98;99120.27;88486;1274;25499;-73
2022/09/21 01:00:18;;;;;;;13.70;9.80;;;;;;;7.79;83.84;99120.23;88520;1274;99173;-73
2022/09/21 01:02:21;;;;;;;14.90;10.00;;;;;;;7.80;83.89;99119.52;88559;1274;23265;-73
2022/09/21 01:04:23;;;;;;;14.90;10.30;;;;;;;7.80;83.84;99121.27;88504;1274;25427;-72
2022/09/21 01:06:25;;;;;;;14.50;10.10;;;;;;;7.81;84.03;99121.77;88398;1274;99024;-74
2022/09/21 01:08:28;;;;;;;16.40;10.70;;;;;;;7.80;83.93;99121.96;88502;1274;23086;-73
2022/09/21 01:10:58;;;;;;;21.20;10.20;;;;;;;7.79;84.01;99124.27;88662;1271;24278;-74
2022/09/21 01:13:30;;;;;;;18.30;9.60;;;;;;;7.79;83.80;99126.55;88564;1271;98910;-74
2022/09/21 01:15:51;;;;;;;16.40;10.30;;;;;;;7.79;83.77;99131.63;88524;1274;24269;-73
2022/09/21 01:18:02;;;;;;;18.80;9.80;;;;;;;7.79;83.88;99135.48;88501;1271;99167;-73
2022/09/21 01:20:16;;;;;;;20.20;10.20;;;;;;;7.79;83.75;99135.64;88645;1273;22637;-73
2022/09/21 01:22:35;;;;;;;21.30;10.40;;;;;;;7.79;84.04;99135.45;88624;1271;22729;-73
2022/09/21 01:25:01;;;;;;;15.50;9.90;;;;;;;7.80;83.58;99135.97;88467;1274;98724;-72
2022/09/21 01:27:27;;;;;;;12.80;9.80;;;;;;;7.79;83.88;99136.67;88535;1274;22561;-73
2022/09/21 01:29:43;;;;;;;26.50;10.90;;;;;;;7.81;83.95;99137.16;88576;1274;22574;-74
2022/09/21 01:32:07;;;;;;;15.60;10.20;;;;;;;7.82;84.14;99131.88;88468;1274;22712;-73
2022/09/21 01:34:18;;;;;;;22.30;11.10;;;;;;;7.83;84.27;99141.63;88637;1271;22555;-73
2022/09/21 01:36:24;;;;;;;14.00;10.50;;;;;;;7.84;84.25;99138.98;88500;1274;97881;-74
2022/09/21 01:38:54;;;;;;;17.00;9.70;;;;;;;7.84;84.29;99135.81;88536;1274;22577;-73
2022/09/21 01:41:02;;;;;;;21.90;10.70;;;;;;;7.85;84.21;99137.55;88736;1271;23886;-73
2022/09/21 01:43:11;;;;;;;14.70;10.50;;;;;;;7.86;84.23;99136.30;88508;1274;99049;-71
2022/09/21 01:45:17;;;;;;;20.30;11.10;;;;;;;7.87;84.27;99133.95;88656;1274;24321;-73
2022/09/21 01:47:19;;;;;;;13.00;10.40;;;;;;;7.88;84.22;99133.25;88529;1274;25427;-72
2022/09/21 01:49:27;;;;;;;16.40;11.00;;;;;;;7.89;84.24;99134.25;88425;1274;97744;-73
2022/09/21 01:51:30;;;;;;;18.30;11.10;;;;;;;7.91;84.05;99135.04;88545;1274;22616;-73
2022/09/21 01:53:40;;;;;;;22.10;11.30;;;;;;;7.92;84.22;99134.66;88572;1274;23876;-73
2022/09/21 01:55:48;;;;;;;20.00;11.30;;;;;;;7.93;84.15;99134.96;88677;1271;23136;-73
2022/09/21 01:58:12;;;;;;;21.10;11.20;;;;;;;7.95;84.30;99138.95;88433;1274;22545;-73
2022/09/21 02:00:15;;;;;;;17.70;11.00;;;;;;;7.96;83.99;99137.87;88582;1273;98974;-70
2022/09/21 02:02:43;;;;;;;17.40;11.00;;;;;;;7.97;84.43;99141.31;88579;1273;25454;-73
2022/09/21 02:04:46;;;;;;;19.70;12.00;;;;;;;7.98;84.31;99140.91;88584;1274;22570;-74
2022/09/21 02:06:49;;;;;;;22.60;12.30;;;;;;;7.98;84.57;99139.33;88406;1274;99249;-75
2022/09/21 02:08:52;;;;;;;23.10;13.90;;;;;;;8.00;83.95;99141.92;88658;1274;22584;-74
2022/09/21 02:10:53;;;;;;;20.30;11.80;;;;;;;8.00;84.21;99142.96;88693;1274;22538;-74
2022/09/21 02:13:00;;;;;;;26.50;13.90;;;;;;;8.01;84.46;99143.60;88554;1274;99388;-73
2022/09/21 02:15:02;;;;;;;22.10;13.80;;;;;;;8.02;84.59;99144.81;88531;1274;22694;-73
2022/09/21 02:17:25;;;;;;;22.10;13.40;;;;;;;8.04;84.38;99142.48;88718;1274;22519;-72
2022/09/21 02:19:36;;;;;;;22.90;13.90;;;;;;;8.05;84.08;99144.40;88712;1274;97904;-74
2022/09/21 02:21:54;;;;;;;20.00;14.70;;;;;;;8.04;84.18;99147.20;88591;1274;24238;-74
2022/09/21 02:24:21;;;;;;;18.00;13.50;;;;;;;7.98;84.30;99135.67;88378;1275;99883;-72
2022/09/21 02:26:34;;;;;;;28.70;14.40;;;;;;;8.05;84.47;99142.98;88659;1271;23473;-72
2022/09/21 02:28:47;;;;;;;28.60;16.70;;;;;;;8.05;84.36;99143.52;88806;1271;23028;-72
2022/09/21 02:31:01;;;;;;;21.70;15.20;;;;;;;8.06;84.40;99136.30;88541;1271;98047;-73
2022/09/21 02:33:21;;;;;;;21.80;14.50;;;;;;;8.07;84.35;99139.57;88430;1274;22609;-73
2022/09/21 02:35:49;;;;;;;24.40;15.80;;;;;;;8.07;84.22;99144.14;88623;1271;23970;-73
2022/09/21 02:38:21;;;;;;;25.20;16.10;;;;;;;8.07;84.40;99141.69;88249;1277;22659;-73
2022/09/21 02:40:32;;;;;;;29.20;16.90;;;;;;;8.09;84.59;99146.86;88110;1279;22603;-72
2022/09/21 02:42:40;;;;;;;28.00;17.50;;;;;;;8.10;84.48;99146.11;87920;1284;98970;-72
2022/09/21 02:44:51;;;;;;;25.50;17.50;;;;;;;8.11;84.61;99145.73;88244;1279;22628;-72
2022/09/21 02:47:06;;;;;;;27.10;17.40;;;;;;;8.12;84.30;99147.61;88347;1277;25491;-74
2022/09/21 02:49:22;;;;;;;30.00;17.70;;;;;;;8.14;84.63;99149.66;88120;1280;98944;-72
2022/09/21 02:51:34;;;;;;;27.10;17.70;;;;;;;8.15;84.72;99152.25;88294;1278;23130;-73
2022/09/21 02:53:38;;;;;;;24.00;17.80;;;;;;;8.15;84.50;99152.76;88247;1279;22644;-73
2022/09/21 02:55:44;;;;;;;25.50;17.40;;;;;;;8.16;84.53;99153.60;88089;1280;100155;-72
2022/09/21 02:57:48;;;;;;;25.20;17.80;;;;;;;8.17;84.58;99156.36;88134;1279;22680;-73
2022/09/21 02:59:51;;;;;;;25.40;18.50;;;;;;;8.18;84.48;99157.20;87983;1281;98225;-73
2022/09/21 03:01:54;;;;;;;22.90;17.30;;;;;;;8.17;84.55;99156.89;88202;1279;22635;-73
2022/09/21 03:03:56;;;;;;;26.20;18.40;;;;;;;8.20;84.73;99160.65;88222;1279;22710;-73
2022/09/21 03:05:59;;;;;;;26.50;18.00;;;;;;;8.21;84.46;99163.06;87866;1281;98929;-73
2022/09/21 03:08:01;;;;;;;27.00;19.20;;;;;;;8.22;84.83;99164.11;88209;1279;23198;-73
2022/09/21 03:10:05;;;;;;;27.00;18.30;;;;;;;8.22;84.65;99164.98;88240;1280;22587;-73
2022/09/21 03:12:07;;;;;;;21.50;17.20;;;;;;;8.22;84.56;99162.52;88181;1279;97906;-71
2022/09/21 03:14:09;;;;;;;26.00;17.80;;;;;;;8.22;84.80;99166.21;88205;1278;22576;-73
2022/09/21 03:16:12;;;;;;;23.40;17.30;;;;;;;8.22;84.56;99165.48;88344;1273;22704;-74
2022/09/21 03:18:14;;;;;;;21.00;17.10;;;;;;;8.23;84.74;99165.27;88527;1271;99020;-73
2022/09/21 03:20:15;;;;;;;23.10;17.20;;;;;;;8.22;84.83;99168.65;88495;1273;24421;-73
2022/09/21 03:22:17;;;;;;;20.80;16.30;;;;;;;8.21;84.37;99171.48;88686;1271;22575;-73
2022/09/21 03:24:44;;;;;;;32.60;17.30;;;;;;;8.20;84.76;99173.06;88458;1271;100416;-73
2022/09/21 03:26:42;;;;;;;21.80;16.60;;;;;;;8.20;84.62;99177.98;88446;1271;22637;-73
2022/09/21 03:28:43;;;;;;;20.40;15.90;;;;;;;8.19;84.80;99177.32;88501;1272;22612;-73
2022/09/21 03:30:47;;;;;;;24.50;16.40;;;;;;;8.19;84.65;99178.35;88597;1271;99418;-76
2022/09/21 03:32:50;;;;;;;22.30;16.30;;;;;;;8.20;84.60;99183.92;88536;1271;22627;-73
2022/09/21 03:34:52;;;;;;;22.00;17.20;;;;;;;8.19;84.74;99180.60;88411;1273;22693;-73
2022/09/21 03:36:54;;;;;;;22.70;16.60;;;;;;;8.20;84.66;99187.25;88306;1273;101197;-72
2022/09/21 03:38:56;;;;;;;23.10;16.40;;;;;;;8.19;84.51;99189.88;88486;1274;24830;-73
2022/09/21 03:40:58;;;;;;;21.60;16.60;;;;;;;8.21;84.47;99191.61;88508;1273;24190;-73
2022/09/21 03:43:00;;;;;;;20.50;17.50;;;;;;;8.21;84.61;99191.77;88383;1274;97870;-72
2022/09/21 03:45:03;;;;;;;25.50;16.50;;;;;;;8.21;84.54;99190.21;88337;1274;22609;-72
2022/09/21 03:47:05;;;;;;;20.50;16.10;;;;;;;8.21;84.75;99191.25;88586;1271;23097;-74
2022/09/21 03:49:07;;;;;;;23.40;17.20;;;;;;;8.22;84.58;99194.54;88431;1271;99171;-73
2022/09/21 03:51:09;;;;;;;23.00;15.40;;;;;;;8.23;84.65;99194.86;88513;1273;24323;-74
2022/09/21 03:53:14;;;;;;;22.40;16.20;;;;;;;8.23;84.84;99199.75;88433;1274;23348;-73
2022/09/21 03:55:16;;;;;;;21.30;16.50;;;;;;;8.23;84.69;99195.56;88595;1274;98886;-74
2022/09/21 03:57:18;;;;;;;22.00;16.40;;;;;;;8.24;84.65;99197.42;88395;1274;25300;-74
2022/09/21 03:59:19;;;;;;;28.50;17.50;;;;;;;8.24;84.82;99202.51;88636;1271;27715;-74
2022/09/21 04:01:21;;;;;;;23.30;17.80;;;;;;;8.26;84.95;99201.76;88690;1271;99594;-72
2022/09/21 04:03:23;;;;;;;29.80;19.20;;;;;;;8.27;84.75;99204.69;88492;1274;27436;-72
2022/09/21 04:05:26;;;;;;;28.50;17.50;;;;;;;8.29;84.66;99206.73;88679;1273;22825;-73
2022/09/21 04:07:33;;;;;;;28.60;16.90;;;;;;;8.28;84.87;99206.23;88476;1274;97560;-73
2022/09/21 04:09:35;;;;;;;22.30;17.60;;;;;;;8.29;84.74;99215.10;88757;1272;22902;-73
2022/09/21 04:11:37;;;;;;;22.90;18.10;;;;;;;8.29;84.96;99218.09;88553;1274;23324;-73
2022/09/21 04:13:41;;;;;;;23.30;17.50;;;;;;;8.31;84.97;99217.51;88705;1271;99263;-73
2022/09/21 04:15:43;;;;;;;23.30;16.60;;;;;;;8.32;84.78;99218.50;88807;1273;23442;-71
2022/09/21 04:17:46;;;;;;;20.90;16.60;;;;;;;8.33;84.78;99219.88;88536;1274;99156;-74
2022/09/21 04:19:48;;;;;;;20.20;16.00;;;;;;;8.32;84.57;99216.05;88792;1271;25531;-73
2022/09/21 04:21:54;;;;;;;19.80;15.90;;;;;;;8.33;84.81;99221.48;88632;1272;23830;-73
2022/09/21 04:23:56;;;;;;;16.70;15.00;;;;;;;8.34;84.66;99220.02;88417;1271;99053;-74
2022/09/21 04:25:58;;;;;;;20.70;15.90;;;;;;;8.35;84.78;99221.73;88716;1272;22935;-73
2022/09/21 04:28:01;;;;;;;19.10;16.00;;;;;;;8.35;84.90;99219.81;88828;1271;25366;-74
2022/09/21 04:30:04;;;;;;;17.70;15.80;;;;;;;8.37;84.73;99223.79;88432;1276;99160;-73
2022/09/21 04:32:06;;;;;;;20.40;16.00;;;;;;;8.38;84.70;99218.84;88727;1274;24286;-72
2022/09/21 04:34:11;;;;;;;20.00;15.20;;;;;;;8.39;84.92;99217.41;88644;1274;24234;-73
2022/09/21 04:36:13;;;;;;;17.50;14.50;;;;;;;8.39;84.90;99218.10;88457;1273;99287;-74
2022/09/21 04:38:18;;;;;;;21.70;14.30;;;;;;;8.40;84.91;99218.08;88507;1273;22844;-73
2022/09/21 04:40:19;;;;;;;17.70;14.60;;;;;;;8.40;84.92;99217.71;88699;1271;22644;-71
2022/09/21 04:42:22;;;;;;;17.90;15.10;;;;;;;8.41;84.68;99212.77;88546;1271;97680;-73
2022/09/21 04:44:23;;;;;;;17.10;14.60;;;;;;;8.42;84.70;99220.10;88483;1274;25268;-72
2022/09/21 04:46:25;;;;;;;18.00;14.50;;;;;;;8.42;84.67;99219.03;88586;1273;22589;-73
2022/09/21 04:48:27;;;;;;;19.80;15.40;;;;;;;8.43;84.79;99214.82;88480;1273;97722;-74
2022/09/21 04:50:29;;;;;;;18.60;14.70;;;;;;;8.43;84.79;99214.61;88579;1274;22687;-73
2022/09/21 04:52:30;;;;;;;16.50;14.40;;;;;;;8.41;84.84;99218.02;88697;1274;25495;-73
2022/09/21 04:54:32;;;;;;;25.70;15.50;;;;;;;8.44;84.72;99220.55;88476;1274;98830;-72
2022/09/21 04:56:34;;;;;;;24.70;15.10;;;;;;;8.45;84.82;99221.42;88541;1272;22797;-73
2022/09/21 04:58:35;;;;;;;16.10;14.30;;;;;;;8.46;84.99;99222.44;88468;1273;22564;-73
2022/09/21 05:00:37;;;;;;;15.60;13.50;;;;;;;8.45;84.68;99228.77;88547;1272;99562;-74
2022/09/21 05:02:39;;;;;;;15.60;14.00;;;;;;;8.45;84.88;99222.46;88703;1271;24810;-72
2022/09/21 05:04:41;;;;;;;17.40;13.90;;;;;;;8.46;84.67;99223.33;88667;1272;22806;-73
2022/09/21 05:06:43;;;;;;;17.70;14.30;;;;;;;8.45;84.70;99223.16;88382;1273;97741;-74
2022/09/21 05:11:07;;;;;;;20.60;14.60;;;;;;;8.48;84.82;99228.86;88534;1274;24309;-73
2022/09/21 05:13:09;;;;;;;16.70;13.50;;;;;;;8.49;84.91;99232.33;88499;1274;98934;-71
2022/09/21 05:15:11;;;;;;;20.00;13.90;;;;;;;8.49;85.08;99233.02;89117;1272;22582;-73
2022/09/21 05:17:13;;;;;;;15.00;13.50;;;;;;;8.50;84.66;99227.02;88678;1274;22547;-76
2022/09/21 05:19:17;;;;;;;20.80;15.30;;;;;;;8.50;84.74;99234.54;88603;1274;99723;-75
2022/09/21 05:21:20;;;;;;;19.60;15.50;;;;;;;8.51;84.77;99235.05;88628;1274;22573;-76
2022/09/21 05:23:23;;;;;;;22.40;13.70;;;;;;;8.53;85.22;99235.34;88826;1271;23312;-76
2022/09/21 05:25:26;;;;;;;15.70;13.90;;;;;;;8.54;85.03;99238.27;88477;1274;100376;-76
2022/09/21 05:27:28;;;;;;;18.30;14.10;;;;;;;8.55;84.81;99240.34;88803;1271;22592;-75
2022/09/21 05:29:30;;;;;;;17.50;13.80;;;;;;;8.56;84.82;99239.97;88791;1273;22663;-75
2022/09/21 05:31:57;;;;;;;14.50;12.90;;;;;;;8.55;85.09;99236.81;88593;1271;99028;-76
2022/09/21 05:34:18;;;;;;;14.50;13.00;;;;;;;8.56;84.83;99238.92;88570;1274;22564;-72
2022/09/21 05:36:50;;;;;;;19.70;13.30;;;;;;;8.56;84.63;99239.42;88495;1273;98899;-74
2022/09/21 05:38:51;;;;;;;;;;;;;;;8.57;84.83;99241.67;88918;1271;24325;-75
2022/09/21 05:40:53;;;;;;;;;;;;;;;8.58;84.80;99246.00;88788;1273;22648;-75
2022/09/21 05:42:57;;;;;;;17.30;12.70;;;;;;;8.59;85.08;99248.06;88715;1273;83582;-74
2022/09/21 05:44:59;;;;;;;18.90;13.90;;;;;;;8.61;85.21;99247.80;88896;1273;23036;-77
2022/09/21 05:47:21;;;;;;;15.10;13.50;;;;;;;8.63;84.97;99250.73;88734;1273;23346;-75
2022/09/21 05:50:17;;;;;;;15.30;13.30;;;;;;;8.66;85.30;99251.31;88730;1274;99279;-74
2022/09/21 05:52:40;;;;;;;15.90;12.10;;;;;;;8.70;85.37;99251.71;88667;1277;22592;-74
2022/09/21 05:54:54;;;;;;;21.70;13.20;;;;;;;8.69;85.05;99244.73;88609;1280;98117;-76
2022/09/21 05:57:33;;;;;;;20.40;13.70;;;;;;;8.75;85.17;99253.29;88683;1277;24447;-75
2022/09/21 06:00:01;;;;;;;19.50;13.40;;;;;;;8.77;85.16;99249.19;88539;1278;25419;-76
2022/09/21 06:02:21;;;;;;;23.00;13.30;;;;;;;8.79;85.22;99249.65;88652;1277;22576;-75
2022/09/21 06:04:23;;;;;;;27.20;14.60;;;;;;;8.82;85.15;99251.80;88530;1277;22745;-76
2022/09/21 06:06:25;;;;;;;23.80;14.50;;;;;;;8.84;84.95;99255.42;88482;1277;98880;-73
2022/09/21 06:08:27;;;;;;;23.90;14.70;;;;;;;8.85;85.09;99262.73;88448;1277;22561;-75
2022/09/21 06:10:33;;;;;;;19.80;14.60;;;;;;;8.87;85.04;99256.70;88354;1277;25436;-74
2022/09/21 06:12:35;;;;;;;22.50;14.80;;;;;;;8.89;85.24;99259.63;88279;1278;99699;-75
2022/09/21 06:14:37;;;;;;;18.50;13.80;;;;;;;8.90;84.96;99262.36;88445;1277;22611;-76
2022/09/21 06:16:41;;;;;;;24.00;14.80;;;;;;;8.92;85.16;99260.91;88535;1277;22579;-75
2022/09/21 06:18:43;;;;;;;21.00;14.20;;;;;;;8.93;85.36;99259.45;88363;1279;98832;-74
2022/09/21 06:20:46;;;;;;;18.90;14.40;;;;;;;8.97;85.25;99264.23;88538;1278;23095;-75
2022/09/21 06:22:48;;;;;;;19.50;13.90;;;;;;;8.99;85.24;99263.61;88277;1281;25480;-77
2022/09/21 06:24:49;;;;;;;21.80;15.70;;;;;;;9.02;85.39;99259.27;88444;1280;98948;-74
2022/09/21 06:26:51;;;;;;;24.20;15.70;;;;;;;9.06;85.15;99264.60;88539;1274;22872;-73
2022/09/21 06:28:53;;;;;;;23.90;15.50;;;;;;;9.10;85.16;99263.41;88989;1276;22711;-74
2022/09/21 06:30:57;;;;;;;27.40;17.40;;;;;;;9.12;85.50;99265.23;89049;1274;98811;-76
2022/09/21 06:33:03;;;;;;;28.80;17.00;;;;;;;9.15;85.23;99263.20;88835;1274;24413;-74
2022/09/21 06:35:07;;;;;;;38.40;21.30;;;;;;;9.19;85.11;99263.42;88635;1274;26551;-73
2022/09/21 06:37:12;;;;;;;31.30;21.10;;;;;;;9.22;85.10;99260.65;88580;1274;98975;-75
2022/09/21 06:39:13;;;;;;;37.30;20.70;;;;;;;9.26;85.02;99257.70;88503;1276;22958;-74
2022/09/21 06:41:16;;;;;;;29.80;20.80;;;;;;;9.30;85.14;99258.58;88631;1272;22550;-77
2022/09/21 06:43:18;;;;;;;43.30;20.90;;;;;;;9.34;85.05;99260.55;88449;1272;99287;-74
2022/09/21 06:45:20;;;;;;;40.40;22.60;;;;;;;9.38;85.30;99257.95;88478;1274;23112;-75
2022/09/21 06:47:22;;;;;;;29.10;20.00;;;;;;;9.44;85.08;99258.59;88598;1273;22791;-75
2022/09/21 06:49:26;;;;;;;33.80;20.20;;;;;;;9.51;85.22;99259.02;88477;1273;99927;-76
2022/09/21 06:51:28;;;;;;;29.00;18.40;;;;;;;9.59;85.07;99258.20;88478;1274;24393;-74
2022/09/21 06:53:32;;;;;;;47.10;20.10;;;;;;;9.63;85.14;99262.39;88361;1277;25387;-76
2022/09/21 06:55:35;;;;;;;29.00;18.10;;;;;;;9.67;85.04;99269.96;88325;1273;99076;-74
2022/09/21 06:57:37;;;;;;;29.10;18.40;;;;;;;9.69;84.94;99271.64;88480;1274;24396;-75
2022/09/21 06:59:39;;;;;;;24.60;17.50;;;;;;;9.70;84.78;99273.36;88251;1276;22564;-76
2022/09/21 07:01:41;;;;;;;34.20;18.90;;;;;;;9.70;84.72;99277.55;88488;1274;97727;-74
2022/09/21 07:03:43;;;;;;;28.70;19.60;;;;;;;9.71;84.88;99281.90;88498;1276;22638;-76
2022/09/21 07:05:45;;;;;;;42.60;20.40;;;;;;;9.74;84.85;99281.13;88485;1275;22676;-75
2022/09/21 07:07:47;;;;;;;47.70;20.50;;;;;;;9.75;84.95;99280.90;88409;1276;98512;-77
2022/09/21 07:09:48;;;;;;;36.60;21.20;;;;;;;9.75;84.74;99282.45;88361;1276;22625;-74
2022/09/21 07:11:50;;;;;;;36.60;21.70;;;;;;;9.75;84.62;99281.23;88594;1274;22621;-74
2022/09/21 07:13:52;;;;;;;31.50;20.30;;;;;;;9.75;84.68;99281.23;88584;1274;22557;-75
2022/09/21 07:15:55;;;;;;;33.10;20.60;;;;;;;9.75;84.68;99282.29;88655;1273;22819;-74
2022/09/21 07:17:57;;;;;;;31.50;20.30;;;;;;;9.74;84.73;99284.96;88628;1273;98897;-74
2022/09/21 07:20:00;;;;;;;33.20;20.20;;;;;;;9.74;84.81;99284.61;88589;1271;25458;-75
2022/09/21 07:22:02;;;;;;;33.00;20.60;;;;;;;9.77;84.91;99284.86;88503;1274;25519;-75
2022/09/21 07:24:04;;;;;;;30.30;19.90;;;;;;;9.78;84.75;99288.65;88597;1272;98733;-75
2022/09/21 07:26:11;;;;;;;31.80;19.50;;;;;;;9.78;84.87;99290.80;88519;1274;23181;-73
2022/09/21 07:28:14;;;;;;;30.90;20.10;;;;;;;9.79;84.69;99289.31;88761;1274;22700;-74
2022/09/21 07:30:16;;;;;;;41.90;20.70;;;;;;;9.81;85.01;99292.94;88668;1271;99362;-75
2022/09/21 07:32:18;;;;;;;28.60;20.40;;;;;;;9.83;84.91;99296.17;88555;1274;25544;-75
2022/09/21 07:34:20;;;;;;;27.60;19.70;;;;;;;9.87;84.73;99293.91;88700;1271;22719;-74
2022/09/21 07:36:22;;;;;;;32.50;19.80;;;;;;;9.91;84.76;99300.61;88551;1271;98919;-75
2022/09/21 07:38:24;;;;;;;30.50;20.20;;;;;;;9.93;84.69;99298.95;88646;1272;24409;-74
2022/09/21 07:40:27;;;;;;;23.90;18.60;;;;;;;9.95;84.78;99302.20;88552;1272;22742;-77
2022/09/21 07:42:30;;;;;;;27.70;16.00;;;;;;;9.98;84.77;99306.66;88537;1274;97772;-74
2022/09/21 07:44:33;;;;;;;22.30;17.40;;;;;;;10.00;84.70;99310.05;88563;1274;25528;-74
2022/09/21 07:46:35;;;;;;;23.40;16.50;;;;;;;10.04;84.71;99310.09;88617;1274;23074;-73
2022/09/21 07:48:38;;;;;;;29.90;17.80;;;;;;;10.06;84.73;99311.94;88717;1274;98960;-74
2022/09/21 07:50:40;;;;;;;25.40;17.70;;;;;;;10.10;84.80;99305.65;88688;1274;22600;-74
2022/09/21 07:52:42;;;;;;;26.10;18.20;;;;;;;10.14;84.69;99309.52;88687;1271;22606;-75
2022/09/21 07:54:44;;;;;;;27.30;19.10;;;;;;;10.14;84.75;99303.91;88654;1274;99345;-75
2022/09/21 07:59:04;;;;;;;25.70;19.00;;;;;;;10.22;84.64;99306.89;88721;1274;22563;-76
2022/09/21 07:59:10;;;;;;;34.00;18.80;;;;;;;10.25;84.64;99305.36;88883;1271;22576;-77
2022/09/21 08:01:12;;;;;;;23.50;18.40;;;;;;;10.27;84.65;99308.47;88744;1271;97927;-75
2022/09/21 08:03:14;;;;;;;24.30;18.20;;;;;;;10.28;84.57;99310.88;88860;1271;22555;-76
2022/09/21 08:05:16;;;;;;;23.70;18.00;;;;;;;10.28;84.55;99310.69;88861;1271;22918;-73
2022/09/21 08:07:18;;;;;;;25.00;16.80;;;;;;;10.28;84.47;99314.55;88566;1274;98321;-74
2022/09/21 08:09:20;;;;;;;24.00;16.90;;;;;;;10.28;84.57;99315.96;88741;1274;23408;-74
2022/09/21 08:11:22;;;;;;;25.00;15.00;;;;;;;10.26;84.44;99317.29;88862;1272;22661;-73
2022/09/21 08:13:24;;;;;;;31.20;16.80;;;;;;;10.24;84.34;99319.29;88731;1271;99917;-74
2022/09/21 08:15:26;;;;;;;28.00;16.20;;;;;;;10.21;84.54;99316.92;88791;1274;22555;-75
2022/09/21 08:17:28;;;;;;;22.30;16.90;;;;;;;10.19;84.50;99320.02;88620;1273;22762;-74
2022/09/21 08:19:30;;;;;;;22.90;16.40;;;;;;;10.17;84.47;99319.41;88593;1271;98124;-73
2022/09/21 08:21:33;;;;;;;21.80;16.20;;;;;;;10.14;84.48;99319.17;88842;1274;25270;-76
2022/09/21 08:23:39;;;;;;;23.60;15.80;;;;;;;10.12;84.63;99322.61;88870;1274;22547;-75
2022/09/21 08:25:41;;;;;;;19.00;15.80;;;;;;;10.08;84.54;99319.77;88734;1272;98322;-75
2022/09/21 08:27:42;;;;;;;20.80;16.30;;;;;;;10.07;84.70;99320.89;88988;1274;23609;-77
2022/09/21 08:29:45;;;;;;;24.10;16.00;;;;;;;10.05;84.85;99322.86;88889;1271;23087;-75
2022/09/21 08:31:46;;;;;;;25.80;17.70;;;;;;;10.05;84.87;99324.78;88575;1274;99470;-76
2022/09/21 08:33:48;;;;;;;23.90;16.30;;;;;;;10.07;84.77;99323.51;88792;1273;24362;-74
2022/09/21 08:35:52;;;;;;;23.80;17.50;;;;;;;10.08;84.83;99325.38;88770;1274;23033;-75
2022/09/21 08:37:53;;;;;;;26.20;17.90;;;;;;;10.10;85.00;99327.08;88918;1274;24360;-75
2022/09/21 08:39:55;;;;;;;28.90;16.00;;;;;;;10.10;85.05;99326.36;89003;1273;24953;-76
2022/09/21 08:42:13;;;;;;;25.20;17.00;;;;;;;10.10;84.76;99327.09;88768;1274;99299;-75
2022/09/21 08:44:39;;;;;;;25.90;18.00;;;;;;;10.08;84.90;99327.83;88830;1274;22676;-76
2022/09/21 08:46:42;;;;;;;32.30;17.30;;;;;;;10.07;84.95;99328.06;88772;1274;25262;-76
2022/09/21 08:48:54;;;;;;;24.00;17.20;;;;;;;10.07;85.02;99329.48;88613;1274;98182;-76
2022/09/21 08:51:00;;;;;;;23.90;16.70;;;;;;;10.09;85.01;99329.06;88916;1274;22714;-76
2022/09/21 08:53:13;;;;;;;27.60;19.30;;;;;;;10.09;85.09;99331.13;88793;1274;23075;-75
2022/09/21 08:55:20;;;;;;;27.30;17.40;;;;;;;10.13;84.86;99332.20;88843;1273;97871;-76
2022/09/21 08:57:28;;;;;;;21.00;16.00;;;;;;;10.16;85.03;99334.73;88909;1274;23834;-75
2022/09/21 08:59:30;;;;;;;29.00;18.40;;;;;;;10.17;85.02;99332.91;88924;1271;22603;-76
2022/09/21 09:01:57;;;;;;;25.10;17.30;;;;;;;10.20;85.05;99334.20;88821;1271;99212;-76
2022/09/21 09:04:18;;;;;;;19.60;15.80;;;;;;;10.26;84.99;99331.68;88973;1274;22538;-76
2022/09/21 09:06:39;;;;;;;18.90;14.50;;;;;;;10.30;85.08;99327.98;88700;1271;99540;-76
2022/09/21 09:09:14;;;;;;;18.70;12.00;;;;;;;10.36;85.11;99329.70;88843;1271;22559;-74
2022/09/21 09:11:40;;;;;;;15.50;12.10;;;;;;;10.42;85.10;99329.82;88907;1274;22639;-75
2022/09/21 09:14:04;;;;;;;13.70;11.20;;;;;;;10.46;85.00;99327.39;88938;1272;99404;-75
2022/09/21 09:16:30;;;;;;;12.30;10.60;;;;;;;10.49;85.01;99325.48;88973;1271;24269;-74
2022/09/21 09:18:41;;;;;;;17.50;11.20;;;;;;;10.52;84.88;99324.48;88885;1271;98250;-76
2022/09/21 09:20:48;;;;;;;13.60;10.90;;;;;;;10.59;84.95;99330.15;89049;1271;24234;-73
2022/09/21 09:23:31;;;;;;;16.10;11.40;;;;;;;10.62;84.93;99334.08;88923;1271;22572;-77
2022/09/21 09:25:40;;;;;;;17.30;10.50;;;;;;;10.65;84.80;99331.82;88663;1274;99040;-74
2022/09/21 09:27:45;;;;;;;11.70;10.40;;;;;;;10.66;84.81;99332.12;89163;1272;22582;-75
2022/09/21 09:30:00;;;;;;;11.80;10.30;;;;;;;10.64;84.68;99330.29;88822;1274;22501;-74
2022/09/21 09:32:10;;;;;;;12.30;11.00;;;;;;;10.67;84.59;99332.96;88934;1271;23016;-76
2022/09/21 09:34:19;;;;;;;16.60;11.10;;;;;;;10.68;84.65;99333.83;88853;1272;25328;-75
2022/09/21 09:36:27;;;;;;;11.30;9.80;;;;;;;10.69;84.58;99332.90;88828;1271;98927;-77
2022/09/21 09:38:49;;;;;;;11.70;9.60;;;;;;;10.68;84.54;99332.38;88711;1274;22585;-75
2022/09/21 09:41:41;;;;;;;11.60;7.10;;;;;;;10.69;84.42;99332.20;88786;1271;24229;-76
2022/09/21 09:44:11;;;;;;;7.80;4.50;;;;;;;10.71;84.44;99332.29;88349;1280;99670;-75
2022/09/21 09:46:28;;;;;;;5.00;3.80;;;;;;;10.72;84.27;99332.93;88084;1284;22597;-76
2022/09/21 09:48:56;;;;;;;5.40;4.30;;;;;;;10.73;84.16;99335.71;88025;1283;98776;-75
2022/09/21 09:50:58;;;;;;;4.30;3.90;;;;;;;10.74;84.14;99333.03;88074;1284;22592;-76
2022/09/21 09:53:15;;;;;;;4.20;3.80;;;;;;;10.79;84.11;99335.45;88217;1282;25889;-76
2022/09/21 09:55:19;;;;;;;4.70;3.80;;;;;;;10.82;83.97;99334.29;87873;1285;99102;-76